Kawkawlin, Michigan
Current Conditions -  °F | °C
As of 2:53 AM on Friday 28 Nov 2014 (Local Time) from KMBS Reporting Station
Clear Clear  
Wind Chill:   Ceiling: Unl
Heat Index: 16°   Visibility: 10mi
Dew Point:   Wind: 5mph
Humidity: 71%   Direction: 260°W
Pressure: 30.34"   Gusts: NA
Location:  43.65°N, 83.94°W
Report Text: KMBS 280753Z 26004KT 10SM CLR M09/M13 A3034 RMK AO2 SLP284 T10891133
Loading
Personal Weather Stations






























Interactive Weather Map New forecast layout! Learn more

10-Day Weather Forecast

Advertisements
Track Severe Weather on mobile